Time;durP1;ratioP1;P1;durP2;ratioP2;P2;SDS_P1;SDS_P2;PMS_P1;PMS_P2;Temp;Humidity;BMP_temperature;BMP_pressure;BME280_temperature;BME280_humidity;BME280_pressure;Samples;Min_cycle;Max_cycle;Signal;HPM_P1;HPM_P2
2022/10/09 00:00:18;;;;;;;8.05;4.93;;;;;;;15.68;51.72;101576.75;5046208;28;20451;-69
2022/10/09 00:04:38;;;;;;;7.53;4.63;;;;;;;15.60;51.89;101571.50;5089870;27;20410;-68
2022/10/09 00:07:03;;;;;;;7.70;4.93;;;;;;;15.54;51.91;101570.41;5066582;28;20400;-67
2022/10/09 00:09:29;;;;;;;6.33;4.50;;;;;;;15.48;52.18;101561.28;5060838;28;20970;-69
2022/10/09 00:12:36;;;;;;;6.40;4.53;;;;;;;15.48;52.14;101565.78;5088061;27;20410;-68
2022/10/09 00:15:01;;;;;;;5.95;4.53;;;;;;;15.45;52.15;101563.47;5086784;28;20406;-68
2022/10/09 00:17:27;;;;;;;5.37;4.20;;;;;;;15.43;52.13;101555.63;5070573;28;20404;-68
2022/10/09 00:19:52;;;;;;;5.50;4.50;;;;;;;15.46;52.04;101559.78;5066711;28;20463;-69
2022/10/09 00:22:17;;;;;;;6.07;4.80;;;;;;;15.41;52.27;101544.31;5066404;28;20766;-69
2022/10/09 00:24:43;;;;;;;6.70;4.60;;;;;;;15.36;52.07;101549.38;5080406;28;20430;-69
2022/10/09 00:27:42;;;;;;;5.85;4.78;;;;;;;15.33;52.16;101544.38;5073623;27;20562;-68
2022/10/09 00:30:08;;;;;;;6.93;4.45;;;;;;;15.29;52.13;101540.41;5070225;28;20962;-68
2022/10/09 00:33:44;;;;;;;8.07;4.88;;;;;;;15.27;52.21;101539.75;5094403;27;20455;-69
2022/10/09 00:36:15;;;;;;;5.75;4.75;;;;;;;15.23;52.42;101538.44;5066812;28;20499;-69
2022/10/09 00:38:41;;;;;;;5.20;4.65;;;;;;;15.20;52.51;101542.31;5066551;28;20376;-69
2022/10/09 00:41:07;;;;;;;8.70;5.03;;;;;;;15.17;52.44;101534.66;5066781;28;20388;-70
2022/10/09 00:45:19;;;;;;;8.98;4.40;;;;;;;15.08;52.61;101541.91;5080828;27;20469;-68
2022/10/09 00:48:04;;;;;;;7.03;4.60;;;;;;;15.11;52.71;101551.41;5081242;27;20404;-69
2022/10/09 00:50:40;;;;;;;6.13;4.78;;;;;;;15.07;52.65;101542.94;5066560;28;20403;-69
2022/10/09 00:53:09;;;;;;;6.88;4.45;;;;;;;15.06;52.82;101537.75;5066613;28;20430;-69
2022/10/09 00:55:36;;;;;;;6.15;4.72;;;;;;;15.04;52.71;101534.44;5066773;28;20387;-68
2022/10/09 00:58:02;;;;;;;6.38;4.82;;;;;;;15.04;52.70;101539.78;5066490;28;20412;-69
2022/10/09 01:00:28;;;;;;;6.07;4.63;;;;;;;15.01;52.73;101538.28;5052679;28;20422;-68
2022/10/09 01:02:54;;;;;;;6.63;4.77;;;;;;;15.04;52.63;101534.44;5066485;28;20499;-69
2022/10/09 01:05:29;;;;;;;7.07;4.88;;;;;;;15.05;52.90;101531.59;5066373;28;20467;-68
2022/10/09 01:10:15;;;;;;;10.48;5.55;;;;;;;15.06;52.96;101533.25;5081431;27;20774;-68
2022/10/09 01:13:21;;;;;;;6.30;5.13;;;;;;;15.01;53.20;101530.28;5085259;27;20420;-69
2022/10/09 01:15:53;;;;;;;7.43;4.47;;;;;;;14.98;53.20;101533.31;5082157;28;20504;-68
2022/10/09 01:18:56;;;;;;;5.93;4.70;;;;;;;14.97;53.17;101530.84;5066460;28;20387;-68
2022/10/09 01:21:40;;;;;;;6.67;4.93;;;;;;;14.96;53.44;101535.31;5055584;28;20490;-69
2022/10/09 01:24:20;;;;;;;8.95;5.10;;;;;;;14.94;53.57;101537.34;5066185;28;20395;-68
2022/10/09 01:26:54;;;;;;;7.83;5.40;;;;;;;14.90;53.44;101528.84;5066695;28;20430;-68
2022/10/09 01:29:23;;;;;;;7.82;5.07;;;;;;;14.89;53.44;101529.03;5066672;28;20831;-68
2022/10/09 01:31:50;;;;;;;6.75;4.90;;;;;;;14.87;53.57;101526.56;5066494;28;20431;-68
2022/10/09 01:34:18;;;;;;;6.38;4.95;;;;;;;14.86;53.37;101524.91;5066221;28;20886;-68
2022/10/09 01:36:44;;;;;;;6.97;5.07;;;;;;;14.85;53.53;101527.72;5066369;28;20384;-69
2022/10/09 01:39:17;;;;;;;9.35;5.40;;;;;;;14.86;53.47;101532.91;5065802;28;20905;-69
2022/10/09 01:42:28;;;;;;;6.53;5.05;;;;;;;14.83;53.63;101540.44;5056525;28;20413;-68
2022/10/09 01:44:53;;;;;;;10.32;5.60;;;;;;;14.84;53.59;101544.78;5046531;28;20823;-68
2022/10/09 01:47:20;;;;;;;9.80;5.75;;;;;;;14.83;53.88;101543.09;5046897;28;20898;-69
2022/10/09 01:50:10;;;;;;;8.50;5.35;;;;;;;14.83;53.88;101541.25;5046224;28;20477;-68
2022/10/09 01:52:44;;;;;;;6.78;5.40;;;;;;;14.83;53.53;101545.78;5046566;28;20393;-68
2022/10/09 01:56:58;;;;;;;8.57;6.30;;;;;;;14.78;53.70;101545.47;5051832;28;20493;-69
2022/10/09 01:59:26;;;;;;;7.20;5.47;;;;;;;14.76;54.01;101544.81;5020249;28;20786;-70
2022/10/09 02:03:50;;;;;;;8.18;6.15;;;;;;;14.73;53.87;101538.00;5090710;27;20432;-68
2022/10/09 02:06:18;;;;;;;8.93;5.97;;;;;;;14.73;54.03;101543.34;5078504;28;20438;-68
2022/10/09 02:08:45;;;;;;;9.82;6.15;;;;;;;14.69;53.80;101542.03;5080795;28;20390;-68
2022/10/09 02:11:16;;;;;;;9.25;6.25;;;;;;;14.69;54.27;101547.34;5086954;28;20378;-68
2022/10/09 02:13:43;;;;;;;7.75;5.40;;;;;;;14.67;54.02;101552.03;5086613;28;20768;-68
2022/10/09 02:16:36;;;;;;;8.40;5.80;;;;;;;14.63;54.45;101545.41;5086568;28;20386;-68
2022/10/09 02:21:03;;;;;;;7.68;5.53;;;;;;;14.62;54.29;101547.25;5074599;27;20398;-68
2022/10/09 02:23:30;;;;;;;8.48;6.43;;;;;;;14.61;54.24;101547.44;5085304;28;20434;-69
2022/10/09 02:27:05;;;;;;;7.80;6.07;;;;;;;14.58;54.57;101556.59;5085335;27;20412;-68
2022/10/09 02:29:31;;;;;;;8.88;6.45;;;;;;;14.59;54.30;101565.44;5066546;28;20422;-68
2022/10/09 02:31:56;;;;;;;8.63;6.60;;;;;;;14.59;54.56;101565.44;5065264;28;20384;-68
2022/10/09 02:34:22;;;;;;;8.73;6.67;;;;;;;14.55;54.14;101556.94;5053865;28;20376;-68
2022/10/09 02:36:48;;;;;;;9.48;7.20;;;;;;;14.58;54.27;101561.09;5066949;28;20819;-69
2022/10/09 02:39:13;;;;;;;10.20;6.75;;;;;;;14.56;54.13;101558.59;5066387;28;20473;-69
2022/10/09 02:41:39;;;;;;;10.73;6.87;;;;;;;14.51;54.31;101556.47;5066682;28;20440;-68
2022/10/09 02:44:05;;;;;;;7.78;6.50;;;;;;;14.51;54.48;101552.94;5066476;28;20478;-69
2022/10/09 02:46:32;;;;;;;9.38;6.40;;;;;;;14.51;54.39;101556.47;5059526;28;20421;-68
2022/10/09 02:50:20;;;;;;;11.20;6.45;;;;;;;14.48;54.34;101543.47;5080588;27;20416;-69
2022/10/09 02:52:45;;;;;;;9.43;6.60;;;;;;;14.50;54.25;101551.28;5062138;28;20413;-69
2022/10/09 02:55:10;;;;;;;12.50;6.90;;;;;;;14.49;54.55;101549.63;5067082;28;20391;-69
2022/10/09 02:59:00;;;;;;;9.38;6.45;;;;;;;14.45;54.38;101549.13;5085660;27;20408;-71
2022/10/09 03:01:26;;;;;;;10.25;6.93;;;;;;;14.44;54.78;101544.81;5064291;28;20952;-68
2022/10/09 03:04:44;;;;;;;9.07;7.07;;;;;;;14.43;54.66;101553.00;5056270;27;20482;-69
2022/10/09 03:07:10;;;;;;;8.93;7.20;;;;;;;14.42;54.54;101546.84;5059695;28;20900;-69
2022/10/09 03:09:35;;;;;;;7.67;6.50;;;;;;;14.40;54.42;101543.50;5046832;28;20794;-68
2022/10/09 03:12:01;;;;;;;9.10;6.68;;;;;;;14.40;54.73;101554.16;5046441;28;20404;-70
2022/10/09 03:14:26;;;;;;;8.17;6.50;;;;;;;14.36;54.55;101550.19;5046814;28;20432;-69
2022/10/09 03:17:20;;;;;;;9.70;7.18;;;;;;;14.35;54.87;101559.22;5071615;27;20413;-69
2022/10/09 03:20:25;;;;;;;11.50;7.38;;;;;;;14.33;54.81;101555.84;5068614;27;20416;-68
2022/10/09 03:22:50;;;;;;;11.05;7.13;;;;;;;14.31;54.79;101561.41;5066785;28;20404;-69
2022/10/09 03:26:42;;;;;;;9.20;6.18;;;;;;;14.32;54.60;101562.22;5076996;27;20979;-69
2022/10/09 03:29:08;;;;;;;11.18;6.90;;;;;;;14.33;54.79;101570.06;5066503;28;20396;-69
2022/10/09 03:31:33;;;;;;;10.70;6.87;;;;;;;14.29;54.77;101557.22;5057361;28;20398;-68
2022/10/09 03:35:51;;;;;;;11.15;7.00;;;;;;;14.28;54.57;101567.06;5072005;27;20416;-68
2022/10/09 03:38:16;;;;;;;12.48;7.38;;;;;;;14.25;54.88;101558.59;5059734;28;20405;-68
2022/10/09 03:40:42;;;;;;;9.93;6.70;;;;;;;14.25;54.93;101570.06;5066211;28;20427;-69
2022/10/09 03:43:08;;;;;;;15.50;7.20;;;;;;;14.23;54.98;101569.41;5066775;28;20484;-69
2022/10/09 03:45:34;;;;;;;11.32;7.20;;;;;;;14.24;55.06;101573.75;5058658;28;20388;-69
2022/10/09 03:47:59;;;;;;;10.02;6.70;;;;;;;14.21;55.19;101574.09;5061138;28;20390;-69
2022/10/09 03:50:25;;;;;;;9.95;7.10;;;;;;;14.21;55.05;101573.28;5063261;28;21978;-69
2022/10/09 03:52:50;;;;;;;8.80;7.13;;;;;;;14.20;55.20;101575.09;5065312;28;20388;-69
2022/10/09 03:55:16;;;;;;;12.18;7.32;;;;;;;14.17;54.92;101571.94;5066164;28;20832;-69
2022/10/09 03:57:41;;;;;;;10.18;7.45;;;;;;;14.13;55.10;101569.63;5066490;28;20416;-69
2022/10/09 04:02:27;;;;;;;10.23;6.97;;;;;;;14.07;55.35;101572.16;5044774;28;20406;-68
2022/10/09 04:04:52;;;;;;;9.52;6.97;;;;;;;14.00;55.05;101576.50;5046394;28;20455;-68
2022/10/09 04:07:17;;;;;;;8.43;6.50;;;;;;;13.98;55.20;101576.66;5045667;28;20378;-71
2022/10/09 04:09:43;;;;;;;9.98;6.90;;;;;;;13.95;55.58;101577.84;5045563;28;20398;-68
2022/10/09 04:12:08;;;;;;;11.07;6.97;;;;;;;13.93;55.41;101573.69;5046406;28;20385;-69
2022/10/09 04:15:51;;;;;;;11.65;7.00;;;;;;;13.93;55.48;101581.69;5074243;27;2078272;-69
2022/10/09 04:18:18;;;;;;;10.80;6.95;;;;;;;13.95;55.32;101577.00;5119513;27;20436;-69
2022/10/09 04:20:50;;;;;;;10.57;7.30;;;;;;;13.98;55.43;101581.19;5131117;27;20388;-69
2022/10/09 04:23:17;;;;;;;10.43;6.80;;;;;;;13.99;55.44;101570.34;5148147;27;20778;-68
2022/10/09 04:25:43;;;;;;;10.45;6.95;;;;;;;13.99;55.55;101567.69;5140545;27;20876;-69
2022/10/09 04:28:09;;;;;;;12.85;9.07;;;;;;;14.04;55.56;101581.31;5146205;27;20391;-69
2022/10/09 04:30:34;;;;;;;10.97;9.30;;;;;;;14.05;55.32;101585.66;5128482;27;20379;-69
2022/10/09 04:33:00;;;;;;;12.23;9.37;;;;;;;14.04;55.47;101581.31;5137150;27;20397;-70
2022/10/09 04:35:25;;;;;;;12.52;7.85;;;;;;;14.08;55.27;101595.13;5127285;27;20480;-69
2022/10/09 04:37:50;;;;;;;16.13;8.97;;;;;;;14.08;55.34;101595.13;5132292;27;20421;-68
2022/10/09 04:40:16;;;;;;;10.82;7.53;;;;;;;14.08;55.33;101593.31;5125425;27;20386;-69
2022/10/09 04:42:41;;;;;;;10.73;7.30;;;;;;;14.05;55.50;101588.31;5125500;27;20386;-69
2022/10/09 04:45:07;;;;;;;12.68;7.15;;;;;;;14.11;55.37;101594.78;5125022;27;20387;-69
2022/10/09 04:47:33;;;;;;;12.75;7.10;;;;;;;14.11;55.59;101598.28;5125663;27;20760;-70
2022/10/09 04:49:58;;;;;;;12.45;7.60;;;;;;;14.12;55.39;101591.13;5125768;27;20474;-70
2022/10/09 04:52:24;;;;;;;12.87;7.07;;;;;;;14.06;55.65;101589.13;5125204;27;20435;-70
2022/10/09 04:56:59;;;;;;;13.35;7.75;;;;;;;14.11;55.56;101597.47;5044146;28;20402;-68
2022/10/09 04:59:24;;;;;;;11.63;7.45;;;;;;;14.13;55.49;101590.97;5045241;28;20479;-68
2022/10/09 05:01:50;;;;;;;10.87;7.10;;;;;;;14.11;55.46;101600.94;5045755;28;20378;-68
2022/10/09 05:04:15;;;;;;;10.07;7.10;;;;;;;14.20;55.39;101598.25;5043291;28;20386;-68
2022/10/09 05:06:41;;;;;;;15.70;8.67;;;;;;;14.27;54.87;101600.06;5042234;28;20382;-69
2022/10/09 05:09:06;;;;;;;16.77;9.00;;;;;;;14.43;54.78;101606.34;5034985;28;21030;-69
2022/10/09 05:11:32;;;;;;;14.63;8.17;;;;;;;14.64;54.36;101601.28;5038899;28;20825;-68
2022/10/09 05:14:53;;;;;;;15.05;9.77;;;;;;;14.77;53.80;101595.34;5086642;27;20427;-68
2022/10/09 05:17:19;;;;;;;14.07;9.73;;;;;;;14.82;53.82;101594.81;5084804;28;20390;-67
2022/10/09 05:19:44;;;;;;;13.83;7.93;;;;;;;14.86;53.56;101601.47;5079361;28;20775;-67
2022/10/09 05:22:10;;;;;;;14.05;8.60;;;;;;;14.88;53.48;101594.94;5085188;28;20455;-68
2022/10/09 05:24:35;;;;;;;14.10;9.67;;;;;;;14.96;53.59;101595.91;5086438;28;20911;-68
2022/10/09 05:27:01;;;;;;;15.15;9.40;;;;;;;15.23;53.37;101602.53;5073020;28;20386;-68
2022/10/09 05:29:26;;;;;;;15.77;9.47;;;;;;;15.43;52.92;101600.22;5086310;28;20412;-67
2022/10/09 05:31:51;;;;;;;13.07;8.83;;;;;;;15.70;52.55;101600.63;5085713;28;20833;-68
2022/10/09 05:34:17;;;;;;;22.93;12.53;;;;;;;15.80;52.04;101602.06;5085863;28;20406;-68
2022/10/09 05:38:21;;;;;;;16.23;9.30;;;;;;;16.12;51.54;101613.44;5089423;27;20937;-68
2022/10/09 05:40:58;;;;;;;16.75;9.68;;;;;;;16.37;51.36;101613.16;5065826;28;20396;-69
2022/10/09 05:43:25;;;;;;;12.98;9.52;;;;;;;16.62;50.95;101617.16;5065690;28;20396;-68
2022/10/09 05:45:51;;;;;;;13.77;7.70;;;;;;;16.82;51.02;101608.53;5065672;28;20387;-68
2022/10/09 05:48:17;;;;;;;12.95;6.53;;;;;;;17.09;50.95;101608.84;5065947;28;20385;-73
2022/10/09 05:50:42;;;;;;;13.23;7.00;;;;;;;17.38;50.83;101610.56;5065911;28;20882;-69
2022/10/09 05:53:08;;;;;;;10.30;7.38;;;;;;;17.60;50.48;101607.84;5065488;28;20881;-69
2022/10/09 05:55:33;;;;;;;10.30;7.20;;;;;;;17.85;49.86;101613.59;5065985;28;20394;-69
2022/10/09 05:57:58;;;;;;;9.43;8.30;;;;;;;17.96;49.47;101613.06;5067215;28;20428;-69
2022/10/09 06:00:24;;;;;;;10.57;7.60;;;;;;;18.10;49.29;101606.75;5065505;28;20876;-70
2022/10/09 06:02:49;;;;;;;12.03;7.03;;;;;;;18.28;49.39;101614.28;5065392;28;20376;-68
2022/10/09 06:05:15;;;;;;;9.13;6.35;;;;;;;18.40;48.94;101630.66;5063298;28;20761;-67
2022/10/09 06:08:47;;;;;;;11.75;6.70;;;;;;;18.59;48.10;101623.72;5067569;27;20430;-66
2022/10/09 06:11:14;;;;;;;10.98;6.55;;;;;;;18.86;47.55;101632.69;5065898;28;20447;-68
2022/10/09 06:13:40;;;;;;;9.57;7.22;;;;;;;19.21;46.81;101627.22;5065858;28;20391;-69
2022/10/09 06:16:06;;;;;;;9.23;6.03;;;;;;;19.24;46.58;101628.66;5065159;28;20475;-66
2022/10/09 06:18:34;;;;;;;11.38;7.40;;;;;;;19.20;46.44;101635.47;5063405;28;20399;-67
2022/10/09 06:21:01;;;;;;;10.45;6.93;;;;;;;19.06;46.34;101631.94;5063517;28;20426;-68
2022/10/09 06:23:27;;;;;;;11.88;7.60;;;;;;;19.04;46.60;101634.00;5065815;28;20403;-68
2022/10/09 06:25:58;;;;;;;11.40;7.70;;;;;;;19.18;46.45;101635.69;5065483;28;20886;-68
2022/10/09 06:28:35;;;;;;;10.80;7.75;;;;;;;19.19;46.13;101633.81;5074715;27;20836;-68
2022/10/09 06:31:09;;;;;;;12.23;8.50;;;;;;;19.18;46.23;101637.53;5066313;28;20404;-69
2022/10/09 06:33:37;;;;;;;11.38;7.10;;;;;;;19.23;46.00;101633.22;5066320;28;20388;-69
2022/10/09 06:36:05;;;;;;;10.30;7.38;;;;;;;19.34;45.77;101631.78;5065739;28;20819;-69
2022/10/09 06:38:33;;;;;;;9.70;7.63;;;;;;;19.17;46.10;101642.06;5065458;28;20384;-69
2022/10/09 06:41:12;;;;;;;11.77;6.90;;;;;;;19.12;46.42;101647.22;5066250;28;20817;-69
2022/10/09 06:43:39;;;;;;;9.35;6.80;;;;;;;19.19;46.06;101636.50;5052535;28;20380;-68
2022/10/09 06:46:07;;;;;;;10.73;7.23;;;;;;;19.50;45.92;101643.97;5065901;28;20420;-69
2022/10/09 06:48:34;;;;;;;7.88;6.78;;;;;;;19.81;45.37;101639.88;5065993;28;20392;-69
2022/10/09 06:51:05;;;;;;;10.27;7.10;;;;;;;20.20;44.65;101643.50;5056222;28;20405;-69
2022/10/09 06:55:17;;;;;;;11.38;6.47;;;;;;;20.46;44.39;101641.78;5091018;27;20862;-70
2022/10/09 06:57:42;;;;;;;7.50;5.40;;;;;;;20.60;44.81;101652.28;5066269;28;20422;-69
2022/10/09 07:00:08;;;;;;;8.95;5.20;;;;;;;20.56;45.07;101644.81;5056013;28;20464;-69
2022/10/09 07:02:35;;;;;;;10.10;5.43;;;;;;;20.79;44.78;101642.47;5061588;28;20384;-70
2022/10/09 07:07:26;;;;;;;8.57;5.70;;;;;;;21.35;43.33;101631.94;5093311;27;20421;-71
2022/10/09 07:09:53;;;;;;;7.57;5.40;;;;;;;21.59;42.84;101633.03;5081887;28;20884;-70
2022/10/09 07:12:18;;;;;;;7.38;4.78;;;;;;;21.90;42.86;101628.59;5065212;28;20392;-70
2022/10/09 07:14:44;;;;;;;7.20;4.93;;;;;;;22.12;42.16;101634.38;5066659;28;20403;-69
2022/10/09 07:17:09;;;;;;;7.37;4.77;;;;;;;22.16;41.99;101627.47;5069332;28;20384;-70
2022/10/09 07:19:35;;;;;;;7.73;4.90;;;;;;;22.19;42.17;101631.63;5074538;28;20414;-70
2022/10/09 07:22:00;;;;;;;7.75;5.70;;;;;;;22.12;41.92;101637.09;5066502;28;20442;-70
2022/10/09 07:24:26;;;;;;;8.27;5.07;;;;;;;22.12;42.17;101631.69;5076137;28;20368;-69
2022/10/09 07:26:54;;;;;;;9.70;5.68;;;;;;;22.14;41.95;101635.81;5066203;28;20952;-70
2022/10/09 07:29:20;;;;;;;8.38;6.00;;;;;;;22.13;41.75;101622.56;5076684;28;20391;-69
2022/10/09 07:31:46;;;;;;;6.33;4.97;;;;;;;22.17;41.74;101629.16;5065998;28;20388;-69
2022/10/09 07:34:11;;;;;;;11.68;6.30;;;;;;;22.27;41.37;101637.59;5076736;28;20388;-70
2022/10/09 07:36:37;;;;;;;8.20;5.53;;;;;;;22.24;41.12;101629.91;5066164;28;20384;-70
2022/10/09 07:39:04;;;;;;;9.65;6.15;;;;;;;22.30;41.46;101631.72;5076416;28;20782;-68
2022/10/09 07:41:29;;;;;;;6.43;5.30;;;;;;;22.37;41.32;101634.34;5066006;28;20391;-69
2022/10/09 07:43:56;;;;;;;9.18;5.10;;;;;;;22.51;41.32;101635.81;5076098;28;20378;-69
2022/10/09 07:46:23;;;;;;;6.43;5.30;;;;;;;22.62;40.97;101626.13;5065605;28;20407;-69
2022/10/09 07:48:49;;;;;;;8.82;5.43;;;;;;;22.78;40.97;101627.38;5076026;28;20413;-69
2022/10/09 07:51:16;;;;;;;9.02;5.28;;;;;;;22.80;40.90;101638.78;5065916;28;20526;-69
2022/10/09 07:53:43;;;;;;;11.27;5.60;;;;;;;22.90;40.87;101638.22;5066796;28;20392;-69
2022/10/09 07:56:16;;;;;;;10.50;5.72;;;;;;;22.97;40.35;101630.84;5079448;28;20379;-70
2022/10/09 07:58:47;;;;;;;9.30;5.78;;;;;;;23.12;40.46;101635.03;5065795;28;20384;-70
2022/10/09 08:01:12;;;;;;;7.63;4.80;;;;;;;23.02;40.38;101630.16;5079197;28;20489;-67
2022/10/09 08:03:38;;;;;;;11.90;6.53;;;;;;;23.04;40.11;101630.75;5066570;28;20451;-70
2022/10/09 08:06:03;;;;;;;8.73;5.75;;;;;;;23.09;40.38;101634.44;5073303;28;20423;-70
2022/10/09 08:08:29;;;;;;;8.57;6.63;;;;;;;23.13;40.42;101633.97;5083537;28;20374;-70
2022/10/09 08:10:54;;;;;;;10.03;7.13;;;;;;;23.16;40.61;101628.94;5075665;28;20450;-70
2022/10/09 08:13:20;;;;;;;8.10;5.13;;;;;;;23.24;40.30;101617.75;5065016;28;20388;-70
2022/10/09 08:15:45;;;;;;;10.53;5.90;;;;;;;23.24;39.95;101628.56;5073274;28;20413;-70
2022/10/09 08:18:11;;;;;;;7.40;6.37;;;;;;;23.21;40.11;101626.34;5075810;28;20390;-70
2022/10/09 08:20:37;;;;;;;7.70;6.30;;;;;;;23.19;40.45;101630.34;5072265;28;20387;-70
2022/10/09 08:23:03;;;;;;;9.40;6.03;;;;;;;23.19;40.63;101630.34;5072158;28;20387;-70
2022/10/09 08:26:22;;;;;;;8.05;5.60;;;;;;;23.21;40.73;101625.50;5063164;27;20401;-68
2022/10/09 08:28:53;;;;;;;12.80;5.35;;;;;;;23.32;40.70;101619.31;5055086;28;20405;-69
2022/10/09 08:31:20;;;;;;;10.30;5.15;;;;;;;23.55;40.66;101621.22;5036391;28;20422;-69
2022/10/09 08:33:46;;;;;;;8.00;5.47;;;;;;;23.67;39.81;101624.75;5042530;28;20393;-69
2022/10/09 08:36:15;;;;;;;13.85;5.60;;;;;;;23.77;40.04;101623.31;5046466;28;20435;-69
2022/10/09 08:38:41;;;;;;;8.52;4.60;;;;;;;23.91;39.90;101613.94;5045689;28;20389;-70
2022/10/09 08:41:31;;;;;;;6.30;4.20;;;;;;;24.19;38.69;101623.19;5040557;28;20387;-69
2022/10/09 08:44:03;;;;;;;8.73;3.90;;;;;;;24.31;37.77;101624.00;5040471;28;20382;-69
2022/10/09 08:46:53;;;;;;;5.95;3.70;;;;;;;24.41;37.28;101616.06;5039397;28;20379;-70
2022/10/09 08:52:35;;;;;;;6.20;3.53;;;;;;;24.70;36.29;101623.41;5091099;27;20761;-69
2022/10/09 08:55:15;;;;;;;6.47;3.35;;;;;;;24.83;36.14;101611.44;5071991;28;20409;-69
2022/10/09 08:57:51;;;;;;;8.55;3.40;;;;;;;24.93;36.03;101612.44;5073751;28;20442;-70
2022/10/09 09:00:23;;;;;;;5.68;3.22;;;;;;;25.00;35.77;101612.31;5066838;28;20395;-70
2022/10/09 09:03:29;;;;;;;5.18;3.40;;;;;;;25.16;35.57;101611.50;5066431;28;20445;-69
2022/10/09 09:06:29;;;;;;;7.60;3.72;;;;;;;25.25;35.55;101613.84;5065921;28;20426;-70
2022/10/09 09:09:28;;;;;;;11.38;4.00;;;;;;;25.33;35.16;101610.69;5057639;28;20397;-69
2022/10/09 09:12:07;;;;;;;6.40;3.63;;;;;;;25.40;34.77;101610.53;5071233;28;20417;-70
2022/10/09 09:15:04;;;;;;;4.57;3.53;;;;;;;25.56;34.94;101612.41;5086672;28;20383;-70
2022/10/09 09:17:52;;;;;;;5.30;3.70;;;;;;;25.67;34.94;101607.97;5086655;28;20938;-70
2022/10/09 09:20:47;;;;;;;5.53;3.47;;;;;;;25.76;34.08;101601.84;5072062;28;20374;-71
2022/10/09 09:23:15;;;;;;;6.22;3.40;;;;;;;25.84;34.08;101597.88;5072898;28;20411;-70
2022/10/09 09:25:44;;;;;;;7.40;4.00;;;;;;;25.94;34.06;101589.06;5080048;28;20471;-70
2022/10/09 09:28:26;;;;;;;5.28;3.25;;;;;;;25.97;33.91;101583.16;5066204;28;20423;-69
2022/10/09 09:30:57;;;;;;;5.43;3.00;;;;;;;26.03;33.21;101590.28;5072101;28;20989;-69
2022/10/09 09:33:50;;;;;;;6.32;3.10;;;;;;;25.99;33.51;101585.63;5086624;28;20817;-69
2022/10/09 09:36:22;;;;;;;5.30;3.30;;;;;;;25.99;33.67;101593.75;5076905;28;21027;-70
2022/10/09 09:38:48;;;;;;;6.80;3.40;;;;;;;25.92;33.64;101592.00;5065791;28;20402;-69
2022/10/09 09:41:14;;;;;;;6.87;3.30;;;;;;;25.96;33.70;101595.06;5065912;28;20388;-69
2022/10/09 09:43:39;;;;;;;6.88;3.58;;;;;;;25.89;33.32;101586.25;5079721;28;20382;-69
2022/10/09 09:46:14;;;;;;;5.80;3.37;;;;;;;25.89;33.40;101586.25;5071554;28;20394;-69
2022/10/09 09:48:44;;;;;;;5.82;3.13;;;;;;;25.90;33.49;101593.34;5086077;28;20403;-70
2022/10/09 09:51:18;;;;;;;5.32;3.20;;;;;;;26.01;33.52;101587.00;5065734;28;20411;-70
2022/10/09 09:53:59;;;;;;;7.68;3.20;;;;;;;26.06;33.11;101587.06;5065720;28;20758;-69
2022/10/09 09:56:33;;;;;;;5.40;3.50;;;;;;;26.07;33.32;101585.16;5082187;28;20810;-70
2022/10/09 09:58:58;;;;;;;7.00;3.43;;;;;;;26.07;33.16;101590.59;5085830;28;20402;-69
2022/10/09 10:01:26;;;;;;;9.15;3.35;;;;;;;26.05;32.88;101582.69;5084916;28;21501;-71
2022/10/09 10:03:55;;;;;;;5.20;3.33;;;;;;;26.04;32.94;101572.09;5067941;28;20449;-69
2022/10/09 10:06:31;;;;;;;4.13;3.00;;;;;;;26.12;33.33;101577.06;5070362;28;20399;-69
2022/10/09 10:09:17;;;;;;;5.82;3.60;;;;;;;26.05;32.97;101568.28;5053944;28;20388;-70
2022/10/09 10:12:02;;;;;;;6.28;3.30;;;;;;;26.03;33.21;101568.53;5071891;28;20401;-70
2022/10/09 10:14:29;;;;;;;5.57;3.25;;;;;;;26.12;33.63;101567.03;5071597;28;20395;-70
2022/10/09 10:16:57;;;;;;;7.22;3.58;;;;;;;26.17;32.96;101565.47;5071711;28;20386;-70
2022/10/09 10:19:37;;;;;;;4.97;3.40;;;;;;;26.16;33.37;101570.06;5062495;28;20424;-69
2022/10/09 10:22:04;;;;;;;8.27;3.50;;;;;;;26.21;33.32;101559.25;5069567;28;20415;-68
2022/10/09 10:24:32;;;;;;;9.15;3.60;;;;;;;26.19;32.97;101561.41;5071774;28;20378;-70
2022/10/09 10:27:04;;;;;;;5.73;3.70;;;;;;;26.19;32.96;101566.84;5057393;28;20399;-69
2022/10/09 10:29:37;;;;;;;4.50;3.30;;;;;;;26.18;33.04;101559.78;5071479;28;20413;-69
2022/10/09 10:32:15;;;;;;;4.70;3.60;;;;;;;26.18;33.12;101561.66;5069391;28;21002;-70
2022/10/09 10:34:52;;;;;;;9.60;3.90;;;;;;;26.10;33.41;101560.19;5051248;28;20794;-69
2022/10/09 10:37:41;;;;;;;4.65;3.60;;;;;;;26.25;33.55;101560.41;5068521;28;20471;-68
2022/10/09 10:40:45;;;;;;;4.10;3.70;;;;;;;26.24;33.04;101550.59;5059385;28;20442;-68
2022/10/09 10:43:36;;;;;;;4.85;3.58;;;;;;;26.36;32.90;101555.06;5044847;28;20454;-68
2022/10/09 10:46:11;;;;;;;6.60;3.70;;;;;;;26.51;32.73;101550.59;5065281;28;20385;-69
2022/10/09 10:48:41;;;;;;;5.10;3.65;;;;;;;26.55;32.48;101547.38;5051425;28;20389;-68
2022/10/09 10:51:12;;;;;;;6.00;3.88;;;;;;;26.59;32.31;101548.50;5056063;28;20422;-69
2022/10/09 10:54:02;;;;;;;6.68;3.75;;;;;;;26.65;32.34;101542.88;5059417;28;20377;-70
2022/10/09 10:56:39;;;;;;;7.60;3.70;;;;;;;26.75;32.48;101544.06;5065138;28;20413;-69
2022/10/09 10:59:17;;;;;;;5.35;3.65;;;;;;;26.82;32.18;101534.59;5061656;28;20395;-69
2022/10/09 11:01:57;;;;;;;7.45;3.65;;;;;;;26.94;31.95;101536.31;5066597;28;20381;-69
2022/10/09 11:05:00;;;;;;;5.53;3.88;;;;;;;26.86;32.19;101524.00;5063555;28;20383;-69
2022/10/09 11:07:40;;;;;;;5.93;3.97;;;;;;;26.84;32.45;101520.72;5061308;28;20388;-69
2022/10/09 11:10:35;;;;;;;6.65;3.70;;;;;;;26.81;32.50;101522.09;5068041;28;20433;-68
2022/10/09 11:13:18;;;;;;;6.88;3.97;;;;;;;26.77;32.55;101517.41;5070727;28;20891;-69
2022/10/09 11:16:17;;;;;;;5.28;3.50;;;;;;;26.80;32.50;101515.00;5070418;28;20865;-69
2022/10/09 11:18:51;;;;;;;5.15;3.47;;;;;;;26.74;32.37;101517.91;5056539;28;20419;-69
2022/10/09 11:21:44;;;;;;;4.53;3.58;;;;;;;26.67;32.48;101513.53;5070766;28;20470;-69
2022/10/09 11:25:00;;;;;;;5.10;3.22;;;;;;;26.74;32.43;101512.47;5050418;28;20460;-69
2022/10/09 11:27:49;;;;;;;6.68;3.72;;;;;;;26.64;32.35;101514.03;5041408;28;20407;-68
2022/10/09 11:31:18;;;;;;;8.00;3.58;;;;;;;26.52;32.39;101513.34;5110122;27;20406;-69
2022/10/09 11:33:57;;;;;;;5.57;3.45;;;;;;;26.46;32.19;101511.66;5086345;28;20413;-69
2022/10/09 11:36:43;;;;;;;5.10;3.50;;;;;;;26.48;32.56;101517.66;5086722;28;20418;-68
2022/10/09 11:39:31;;;;;;;5.70;3.80;;;;;;;26.47;32.30;101514.13;5099237;27;20406;-69
2022/10/09 11:41:57;;;;;;;7.18;4.20;;;;;;;26.46;32.29;101514.38;5068645;28;20500;-69
2022/10/09 11:44:50;;;;;;;8.82;3.60;;;;;;;26.48;32.79;101515.75;5066059;28;20388;-69
2022/10/09 11:47:39;;;;;;;6.35;4.20;;;;;;;26.49;32.40;101498.38;5067672;28;20380;-69
2022/10/09 11:50:37;;;;;;;5.25;4.13;;;;;;;26.53;32.78;101506.84;5064963;28;20390;-69
2022/10/09 11:53:12;;;;;;;13.45;4.35;;;;;;;26.48;32.75;101502.16;5079541;28;20921;-69
2022/10/09 11:55:38;;;;;;;7.05;4.82;;;;;;;26.52;32.66;101503.31;5076771;28;20382;-69
2022/10/09 11:58:20;;;;;;;6.90;4.63;;;;;;;26.50;33.19;101504.63;5086430;28;20980;-69
2022/10/09 12:00:49;;;;;;;5.55;4.43;;;;;;;26.50;32.91;101491.03;5077420;28;20385;-69
2022/10/09 12:03:34;;;;;;;5.67;4.17;;;;;;;26.47;32.65;101499.69;5080186;28;20384;-69
2022/10/09 12:06:15;;;;;;;7.63;4.53;;;;;;;26.37;32.15;101505.88;5078115;28;20386;-69
2022/10/09 12:08:54;;;;;;;6.32;4.50;;;;;;;26.26;32.24;101501.41;5066073;28;20388;-71
2022/10/09 12:11:20;;;;;;;9.35;4.30;;;;;;;26.32;32.73;101500.38;5079594;28;20767;-70
2022/10/09 12:13:52;;;;;;;8.23;4.78;;;;;;;26.31;32.41;101504.19;5079608;28;20398;-70
2022/10/09 12:16:40;;;;;;;8.50;5.10;;;;;;;26.33;32.78;101507.47;5049529;28;20390;-69
2022/10/09 12:19:19;;;;;;;8.02;4.85;;;;;;;26.30;32.61;101506.06;5053555;28;20396;-69
2022/10/09 12:22:04;;;;;;;7.18;4.20;;;;;;;26.21;32.29;101496.72;5065319;28;20460;-69